Time;durP1;ratioP1;P1;durP2;ratioP2;P2;SDS_P1;SDS_P2;PMS_P1;PMS_P2;Temp;Humidity;BMP_temperature;BMP_pressure;BME280_temperature;BME280_humidity;BME280_pressure;Samples;Min_cycle;Max_cycle;Signal;HPM_P1;HPM_P2
2020/12/13 00:00:25;;;;;;;43.80;23.27;;;9.80;99.00;;;;;;5036189;28;20500;-72
2020/12/13 00:02:52;;;;;;;45.93;23.80;;;9.80;99.00;;;;;;5036103;28;20450;-72
2020/12/13 00:05:18;;;;;;;43.00;23.70;;;9.80;99.00;;;;;;5036048;28;20449;-73
2020/12/13 00:07:45;;;;;;;42.30;22.03;;;9.80;98.90;;;;;;5035720;28;20937;-73
2020/12/13 00:10:11;;;;;;;40.43;23.13;;;9.80;98.90;;;;;;5035674;28;20932;-73
2020/12/13 00:12:37;;;;;;;44.80;23.93;;;9.70;99.00;;;;;;5036014;28;20438;-73
2020/12/13 00:15:04;;;;;;;37.57;22.37;;;9.70;99.00;;;;;;5035837;28;20443;-73
2020/12/13 00:17:31;;;;;;;38.57;22.97;;;9.70;99.10;;;;;;5034975;28;20463;-73
2020/12/13 00:19:58;;;;;;;43.33;23.90;;;9.70;99.10;;;;;;5035976;28;20426;-73
2020/12/13 00:22:24;;;;;;;43.70;23.67;;;9.70;99.20;;;;;;5035889;28;20453;-73
2020/12/13 00:24:51;;;;;;;40.43;21.67;;;9.70;99.20;;;;;;5035735;28;20474;-73
2020/12/13 00:27:17;;;;;;;40.83;23.63;;;9.80;99.30;;;;;;5035888;28;20450;-73
2020/12/13 00:29:43;;;;;;;35.63;22.90;;;9.70;99.20;;;;;;5035719;28;20470;-73
2020/12/13 00:32:10;;;;;;;40.87;23.30;;;9.70;99.30;;;;;;5035578;28;20936;-73
2020/12/13 00:34:36;;;;;;;39.03;23.33;;;9.70;99.40;;;;;;5035492;28;20937;-73
2020/12/13 00:37:02;;;;;;;39.50;22.90;;;9.70;99.50;;;;;;5035794;28;20450;-72
2020/12/13 00:39:29;;;;;;;34.70;22.67;;;9.70;99.40;;;;;;5035576;28;20470;-73
2020/12/13 00:41:56;;;;;;;37.77;23.40;;;9.70;99.40;;;;;;5035772;28;20436;-73
2020/12/13 00:44:22;;;;;;;41.73;23.30;;;9.80;99.40;;;;;;5035111;28;20810;-73
2020/12/13 00:46:49;;;;;;;36.57;22.60;;;9.70;99.40;;;;;;5035528;28;20634;-73
2020/12/13 00:49:16;;;;;;;39.50;23.87;;;9.80;99.40;;;;;;5035374;28;20463;-73
2020/12/13 00:51:42;;;;;;;39.33;23.57;;;9.80;99.50;;;;;;5035438;28;20443;-73
2020/12/13 00:54:08;;;;;;;38.20;24.30;;;9.70;99.50;;;;;;5035290;28;20434;-73
2020/12/13 00:56:34;;;;;;;42.80;26.40;;;9.70;99.50;;;;;;5035392;28;20419;-73
2020/12/13 00:59:01;;;;;;;42.53;26.70;;;9.80;99.60;;;;;;5035277;28;20467;-73
2020/12/13 01:01:28;;;;;;;45.37;25.53;;;9.80;99.50;;;;;;5035135;28;20438;-73
2020/12/13 01:03:54;;;;;;;41.70;25.83;;;9.80;99.50;;;;;;5034968;28;20482;-73
2020/12/13 01:06:22;;;;;;;44.07;25.10;;;9.70;99.50;;;;;;5035132;28;20435;-73
2020/12/13 01:08:48;;;;;;;46.30;26.43;;;9.70;99.50;;;;;;5034821;28;20493;-73
2020/12/13 01:11:14;;;;;;;46.13;27.70;;;9.70;99.60;;;;;;5034956;28;20480;-73
2020/12/13 01:13:42;;;;;;;45.90;25.87;;;9.70;99.60;;;;;;5034860;28;20431;-73
2020/12/13 01:16:09;;;;;;;45.07;27.23;;;9.70;99.60;;;;;;5034787;28;20509;-73
2020/12/13 01:18:35;;;;;;;46.40;27.33;;;9.70;99.70;;;;;;5034663;28;20459;-73
2020/12/13 01:21:01;;;;;;;47.83;27.30;;;9.70;99.80;;;;;;5034620;28;20449;-73
2020/12/13 01:23:27;;;;;;;51.47;28.80;;;9.70;99.80;;;;;;5034564;28;20478;-73
2020/12/13 01:25:53;;;;;;;45.07;27.53;;;9.80;99.80;;;;;;5034226;28;20932;-73
2020/12/13 01:28:19;;;;;;;48.90;26.80;;;9.80;99.70;;;;;;5034903;28;20462;-73
2020/12/13 01:30:46;;;;;;;42.90;26.43;;;9.70;99.70;;;;;;5034502;28;20442;-73
2020/12/13 01:33:13;;;;;;;43.90;26.70;;;9.80;99.80;;;;;;5034442;28;20809;-73
2020/12/13 01:35:40;;;;;;;46.30;25.43;;;9.80;99.70;;;;;;5034167;28;20469;-73
2020/12/13 01:38:06;;;;;;;41.83;27.77;;;9.80;99.70;;;;;;5034275;28;20497;-72
2020/12/13 01:40:32;;;;;;;42.47;24.67;;;9.80;99.60;;;;;;5034418;28;20447;-72
2020/12/13 01:42:58;;;;;;;39.77;25.60;;;9.80;99.50;;;;;;5033916;28;20909;-72
2020/12/13 01:45:24;;;;;;;39.53;25.33;;;9.80;99.60;;;;;;5034223;28;20442;-72
2020/12/13 01:47:51;;;;;;;35.40;23.70;;;9.80;99.40;;;;;;5034135;28;20461;-72
2020/12/13 01:50:31;;;;;;;32.97;22.57;;;9.80;99.40;;;;;;5033913;28;20994;-72
2020/12/13 01:53:13;;;;;;;33.90;23.10;;;9.80;99.50;;;;;;5033820;28;20829;-72
2020/12/13 01:55:41;;;;;;;31.97;22.40;;;9.80;99.50;;;;;;5034084;28;20779;-72
2020/12/13 01:58:12;;;;;;;30.77;22.13;;;9.70;99.50;;;;;;5033947;28;20497;-72
2020/12/13 02:00:39;;;;;;;32.00;23.20;;;9.80;99.50;;;;;;5033975;28;20423;-72
2020/12/13 02:03:08;;;;;;;27.93;21.20;;;9.80;99.40;;;;;;5033861;28;20443;-73
2020/12/13 02:05:37;;;;;;;32.30;22.17;;;9.80;99.30;;;;;;5033646;28;20442;-73
2020/12/13 02:08:05;;;;;;;31.17;22.80;;;9.80;99.10;;;;;;5033943;28;20833;-73
2020/12/13 02:10:31;;;;;;;32.23;23.90;;;9.80;99.20;;;;;;5033822;28;20446;-73
2020/12/13 02:12:58;;;;;;;29.53;22.70;;;9.80;99.10;;;;;;5033771;28;20454;-73
2020/12/13 02:15:24;;;;;;;33.70;22.73;;;9.80;99.10;;;;;;5033408;28;20937;-73
2020/12/13 02:17:51;;;;;;;32.67;22.87;;;9.80;99.10;;;;;;5033283;28;20977;-73
2020/12/13 02:20:17;;;;;;;29.33;22.70;;;9.80;99.10;;;;;;5033360;28;20453;-73
2020/12/13 02:22:48;;;;;;;28.10;21.20;;;9.80;99.00;;;;;;5033624;28;20464;-73
2020/12/13 02:25:17;;;;;;;26.43;20.03;;;9.80;98.90;;;;;;5033619;28;20474;-73
2020/12/13 02:27:43;;;;;;;31.40;22.40;;;9.70;98.90;;;;;;5033257;28;20442;-73
2020/12/13 02:30:10;;;;;;;32.60;22.70;;;9.80;98.90;;;;;;5033581;28;20442;-73
2020/12/13 02:32:36;;;;;;;27.97;21.33;;;9.70;98.90;;;;;;5034624;28;20852;-73
2020/12/13 02:35:04;;;;;;;33.27;23.90;;;9.70;99.00;;;;;;5034036;28;20441;-73
2020/12/13 02:37:30;;;;;;;32.07;22.23;;;9.70;99.00;;;;;;5033258;28;20430;-73
2020/12/13 02:39:57;;;;;;;30.53;21.50;;;9.60;99.00;;;;;;5034583;28;20439;-73
2020/12/13 02:42:23;;;;;;;31.20;23.37;;;9.60;99.10;;;;;;5040125;28;20808;-73
2020/12/13 02:44:50;;;;;;;31.17;22.40;;;9.60;99.30;;;;;;5040012;28;20836;-73
2020/12/13 02:47:16;;;;;;;29.67;21.97;;;9.60;99.30;;;;;;5040071;28;20858;-73
2020/12/13 02:49:43;;;;;;;32.30;22.30;;;9.60;99.20;;;;;;5039970;28;20466;-73
2020/12/13 02:52:10;;;;;;;28.00;21.70;;;9.60;99.30;;;;;;5039952;28;20450;-73
2020/12/13 02:54:37;;;;;;;31.37;20.30;;;9.60;99.40;;;;;;5039978;28;20461;-73
2020/12/13 02:57:04;;;;;;;34.63;22.60;;;9.60;99.40;;;;;;5039915;28;20438;-73
2020/12/13 02:59:30;;;;;;;27.53;21.10;;;9.60;99.50;;;;;;5039691;28;20470;-73
2020/12/13 03:01:57;;;;;;;25.90;20.00;;;9.60;99.60;;;;;;5039852;28;20442;-73
2020/12/13 03:04:23;;;;;;;30.77;20.90;;;9.60;99.70;;;;;;5039410;28;21029;-73
2020/12/13 03:06:49;;;;;;;27.40;20.60;;;9.60;99.70;;;;;;5039800;28;20445;-73
2020/12/13 03:09:15;;;;;;;29.33;18.90;;;9.60;99.80;;;;;;5039746;28;20469;-73
2020/12/13 03:11:41;;;;;;;28.07;20.63;;;9.60;99.80;;;;;;5039765;28;20430;-73
2020/12/13 03:14:09;;;;;;;24.37;18.97;;;9.60;99.70;;;;;;5039825;28;20441;-74
2020/12/13 03:16:35;;;;;;;31.47;21.27;;;9.60;99.80;;;;;;5039698;28;20465;-72
2020/12/13 03:19:01;;;;;;;31.50;22.77;;;9.60;99.80;;;;;;5039683;28;20477;-72
2020/12/13 03:21:27;;;;;;;34.50;22.57;;;9.60;99.80;;;;;;5039504;28;20955;-72
2020/12/13 03:23:53;;;;;;;28.70;20.30;;;9.60;99.80;;;;;;5039675;28;20488;-73
2020/12/13 03:26:19;;;;;;;28.80;20.67;;;9.60;99.70;;;;;;5039432;28;20442;-73
2020/12/13 03:28:46;;;;;;;26.43;20.80;;;9.50;99.60;;;;;;5039600;28;20462;-73
2020/12/13 03:31:13;;;;;;;30.20;19.80;;;9.50;99.70;;;;;;5039631;28;20445;-73
2020/12/13 03:33:39;;;;;;;28.30;20.07;;;9.50;99.60;;;;;;5039733;28;20422;-73
2020/12/13 03:36:05;;;;;;;27.40;20.87;;;9.60;99.70;;;;;;5039453;28;20454;-72
2020/12/13 03:38:31;;;;;;;19.20;16.57;;;9.60;99.60;;;;;;5039590;28;20458;-73
2020/12/13 03:40:57;;;;;;;22.83;18.37;;;9.50;99.50;;;;;;5039394;28;20891;-73
2020/12/13 03:43:24;;;;;;;20.83;17.27;;;9.60;99.50;;;;;;5039396;28;20438;-73
2020/12/13 03:45:50;;;;;;;21.43;17.57;;;9.50;99.40;;;;;;5039134;28;20797;-73
2020/12/13 03:48:17;;;;;;;27.67;19.73;;;9.50;99.60;;;;;;5039363;28;20470;-73
2020/12/13 03:50:43;;;;;;;23.57;18.90;;;9.50;99.50;;;;;;5039479;28;20772;-73
2020/12/13 03:53:11;;;;;;;23.20;18.03;;;9.50;99.60;;;;;;5035010;28;20443;-73
2020/12/13 03:55:37;;;;;;;23.37;18.03;;;9.50;99.70;;;;;;5036333;28;20438;-73
2020/12/13 03:58:04;;;;;;;23.87;18.00;;;9.50;99.40;;;;;;5036255;28;20469;-73
2020/12/13 04:00:30;;;;;;;28.90;20.00;;;9.50;99.40;;;;;;5036201;28;20504;-73
2020/12/13 04:02:57;;;;;;;25.40;17.80;;;9.50;99.40;;;;;;5035916;28;20438;-73
2020/12/13 04:05:24;;;;;;;27.57;18.87;;;9.40;99.50;;;;;;5036178;28;20531;-73
2020/12/13 04:07:51;;;;;;;23.60;16.30;;;9.40;99.60;;;;;;5036058;28;20500;-73
2020/12/13 04:10:18;;;;;;;22.67;16.70;;;9.50;99.60;;;;;;5035747;28;20443;-73
2020/12/13 04:12:45;;;;;;;19.90;16.47;;;9.40;99.60;;;;;;5036003;28;20449;-73
2020/12/13 04:15:11;;;;;;;18.90;15.27;;;9.50;99.60;;;;;;5035941;28;20462;-73
2020/12/13 04:17:37;;;;;;;20.13;15.77;;;9.50;99.50;;;;;;5035929;28;20458;-73
2020/12/13 04:20:05;;;;;;;17.77;13.60;;;9.40;99.40;;;;;;5035920;28;20469;-73
2020/12/13 04:22:33;;;;;;;18.93;15.20;;;9.40;99.60;;;;;;5035475;28;20940;-73
2020/12/13 04:24:59;;;;;;;18.27;14.30;;;9.40;99.50;;;;;;5035784;28;20501;-72
2020/12/13 04:27:26;;;;;;;17.60;13.30;;;9.40;99.60;;;;;;5035420;28;20968;-73
2020/12/13 04:29:52;;;;;;;19.00;13.47;;;9.40;99.50;;;;;;5035602;28;20462;-73
2020/12/13 04:32:18;;;;;;;17.63;14.03;;;9.50;99.60;;;;;;5035645;28;20443;-73
2020/12/13 04:34:45;;;;;;;16.10;13.07;;;9.50;99.50;;;;;;5035696;28;20442;-72
2020/12/13 04:37:11;;;;;;;17.50;13.73;;;9.50;99.40;;;;;;5035235;28;20808;-72
2020/12/13 04:39:38;;;;;;;18.23;13.40;;;9.50;99.20;;;;;;5035496;28;20463;-72
2020/12/13 04:42:05;;;;;;;17.57;13.00;;;9.50;99.20;;;;;;5035181;28;20843;-72
2020/12/13 04:44:31;;;;;;;16.37;12.93;;;9.50;99.30;;;;;;5035348;28;20508;-73
2020/12/13 04:47:03;;;;;;;14.77;11.67;;;9.50;99.30;;;;;;5035430;28;20442;-72
2020/12/13 04:49:31;;;;;;;21.10;12.07;;;9.50;99.30;;;;;;5035266;28;20524;-72
2020/12/13 04:51:58;;;;;;;16.10;12.20;;;9.40;99.40;;;;;;5035300;28;20442;-72
2020/12/13 04:54:26;;;;;;;15.20;11.33;;;9.50;99.40;;;;;;5035212;28;20442;-73
2020/12/13 04:56:54;;;;;;;15.27;11.80;;;9.50;99.40;;;;;;5034994;28;20443;-73
2020/12/13 04:59:21;;;;;;;14.50;12.20;;;9.50;99.30;;;;;;5035064;28;20462;-73
2020/12/13 05:01:48;;;;;;;14.57;12.00;;;9.40;99.20;;;;;;5035151;28;20451;-73
2020/12/13 05:04:16;;;;;;;14.03;11.10;;;9.40;99.20;;;;;;5034526;28;20482;-73
2020/12/13 05:06:43;;;;;;;15.83;10.90;;;9.50;99.40;;;;;;5034663;28;20445;-73
2020/12/13 05:09:11;;;;;;;13.20;11.30;;;9.50;99.30;;;;;;5034534;28;20972;-73
2020/12/13 05:11:38;;;;;;;16.20;12.50;;;9.50;99.30;;;;;;5034845;28;20443;-73
2020/12/13 05:14:06;;;;;;;13.07;11.60;;;9.50;99.20;;;;;;5034866;28;20441;-72
2020/12/13 05:16:32;;;;;;;15.13;12.57;;;9.40;99.30;;;;;;5034925;28;20844;-72
2020/12/13 05:18:58;;;;;;;14.70;12.40;;;9.40;99.40;;;;;;5034662;28;20466;-72
2020/12/13 05:21:25;;;;;;;15.97;12.73;;;9.30;99.50;;;;;;5034759;28;20446;-72
2020/12/13 05:23:53;;;;;;;17.57;13.87;;;9.40;99.80;;;;;;5034537;28;20478;-73
2020/12/13 05:26:20;;;;;;;19.93;14.80;;;9.30;99.60;;;;;;5034646;28;20446;-73
2020/12/13 05:28:49;;;;;;;17.37;13.77;;;9.30;99.70;;;;;;5034497;28;20463;-73
2020/12/13 05:31:19;;;;;;;22.90;15.20;;;9.30;99.80;;;;;;5034535;28;20468;-73
2020/12/13 05:33:49;;;;;;;24.07;16.50;;;9.30;99.80;;;;;;5034109;28;20932;-73
2020/12/13 05:36:17;;;;;;;19.70;15.33;;;9.40;99.70;;;;;;5034155;28;20490;-73
2020/12/13 05:38:45;;;;;;;21.60;16.50;;;9.30;99.70;;;;;;5034418;28;20462;-72
2020/12/13 05:41:13;;;;;;;24.83;17.70;;;9.30;99.60;;;;;;5034367;28;20482;-73
2020/12/13 05:43:44;;;;;;;25.53;19.43;;;9.20;99.70;;;;;;5034225;28;20419;-73
2020/12/13 05:49:26;;;;;;;24.63;19.03;;;9.30;99.70;;;;;;4953854;29;20457;-73
2020/12/13 05:51:52;;;;;;;22.60;17.30;;;9.20;99.70;;;;;;4953791;29;20481;-73
2020/12/13 05:54:21;;;;;;;22.90;17.57;;;9.20;99.50;;;;;;4997863;28;20439;-73
2020/12/13 05:56:51;;;;;;;27.43;19.70;;;9.20;99.50;;;;;;5034141;28;20207;-73
2020/12/13 05:59:17;;;;;;;23.70;17.83;;;9.10;99.50;;;;;;5033973;28;20462;-73
2020/12/13 06:01:47;;;;;;;26.80;19.50;;;9.10;99.40;;;;;;5033655;28;20936;-73
2020/12/13 06:04:16;;;;;;;24.53;18.50;;;9.10;99.90;;;;;;5034075;28;20543;-73
2020/12/13 06:06:44;;;;;;;23.07;16.73;;;9.10;99.50;;;;;;5033913;28;20803;-73
2020/12/13 06:09:11;;;;;;;25.57;18.07;;;9.10;99.50;;;;;;5034161;28;21026;-73
2020/12/13 06:11:43;;;;;;;28.60;17.63;;;9.10;99.50;;;;;;5033462;28;20829;-73
2020/12/13 06:14:12;;;;;;;22.80;17.30;;;9.00;99.40;;;;;;5033604;28;20446;-72
2020/12/13 06:16:39;;;;;;;31.10;19.60;;;9.10;99.40;;;;;;5033248;28;20823;-72
2020/12/13 06:19:07;;;;;;;27.60;18.20;;;9.00;99.20;;;;;;5033611;28;20462;-72
2020/12/13 06:21:34;;;;;;;26.80;16.97;;;9.00;99.20;;;;;;5033731;28;20438;-73
2020/12/13 06:24:01;;;;;;;25.73;17.40;;;8.90;99.20;;;;;;5033539;28;20492;-72
2020/12/13 06:26:28;;;;;;;26.20;18.33;;;8.90;99.20;;;;;;5033631;28;20547;-72
2020/12/13 06:28:56;;;;;;;35.53;19.50;;;8.90;99.10;;;;;;5033232;28;21010;-73
2020/12/13 06:31:23;;;;;;;26.00;18.60;;;8.90;99.40;;;;;;5033272;28;20975;-73
2020/12/13 06:33:49;;;;;;;28.63;17.60;;;9.00;99.20;;;;;;5033621;28;20439;-73
2020/12/13 06:36:16;;;;;;;22.97;16.90;;;9.00;99.10;;;;;;5033302;28;20450;-73
2020/12/13 06:38:43;;;;;;;25.90;18.80;;;9.00;99.10;;;;;;5033407;28;20464;-73
2020/12/13 06:41:11;;;;;;;25.83;16.93;;;8.90;99.10;;;;;;5033537;28;20446;-73
2020/12/13 06:43:41;;;;;;;24.47;16.87;;;8.90;99.10;;;;;;5033176;28;20924;-73
2020/12/13 06:46:12;;;;;;;20.93;15.83;;;8.90;99.10;;;;;;5033391;28;20454;-73
2020/12/13 06:48:41;;;;;;;23.10;16.93;;;8.90;99.10;;;;;;5033369;28;20830;-73
2020/12/13 06:51:09;;;;;;;23.53;16.60;;;8.90;99.00;;;;;;5033378;28;20446;-73
2020/12/13 06:53:35;;;;;;;28.20;17.10;;;8.80;98.80;;;;;;5033330;28;20446;-73
2020/12/13 06:56:09;;;;;;;21.83;17.87;;;8.90;99.00;;;;;;5033391;28;20473;-73
2020/12/13 06:58:46;;;;;;;22.87;15.13;;;8.90;98.70;;;;;;5033308;28;20823;-73
2020/12/13 07:01:17;;;;;;;19.60;15.47;;;8.90;98.60;;;;;;5033268;28;20454;-73
2020/12/13 07:03:43;;;;;;;23.10;14.53;;;9.00;98.40;;;;;;5032968;28;20434;-73
2020/12/13 07:06:15;;;;;;;18.80;14.40;;;8.90;98.40;;;;;;5033276;28;20445;-73
2020/12/13 07:08:47;;;;;;;27.77;14.17;;;8.90;97.80;;;;;;5033253;28;20465;-73
2020/12/13 07:11:15;;;;;;;21.83;13.03;;;8.90;97.80;;;;;;5033171;28;20438;-73
2020/12/13 07:13:44;;;;;;;22.00;13.90;;;8.90;97.70;;;;;;5033196;28;20438;-73
2020/12/13 07:16:14;;;;;;;20.80;13.33;;;8.90;97.70;;;;;;5033174;28;20438;-73
2020/12/13 07:18:46;;;;;;;26.43;13.47;;;8.90;97.50;;;;;;5033046;28;20513;-73
2020/12/13 07:21:14;;;;;;;22.07;12.83;;;8.80;97.40;;;;;;5033102;28;20485;-73
2020/12/13 07:23:41;;;;;;;18.37;12.00;;;8.80;97.40;;;;;;5032680;28;20488;-73
2020/12/13 07:26:07;;;;;;;17.63;11.43;;;8.80;97.40;;;;;;5033296;28;20847;-73
2020/12/13 07:28:34;;;;;;;15.43;10.83;;;8.90;97.30;;;;;;5036760;28;20564;-73
2020/12/13 07:31:04;;;;;;;17.20;11.83;;;8.80;97.10;;;;;;5036443;28;20442;-73
2020/12/13 07:33:30;;;;;;;20.27;10.83;;;8.90;97.00;;;;;;5036531;28;20905;-73
2020/12/13 07:35:58;;;;;;;15.87;10.00;;;8.90;96.90;;;;;;5036544;28;20486;-73
2020/12/13 07:38:24;;;;;;;20.13;11.97;;;8.90;96.90;;;;;;5036572;28;20458;-74
2020/12/13 07:40:51;;;;;;;17.90;10.77;;;8.90;96.80;;;;;;5036239;28;20448;-75
2020/12/13 07:43:17;;;;;;;15.03;10.60;;;9.00;96.70;;;;;;5036529;28;20447;-75
2020/12/13 07:45:46;;;;;;;20.80;11.30;;;8.90;96.40;;;;;;5036421;28;20469;-74
2020/12/13 07:48:15;;;;;;;16.20;9.83;;;8.90;96.20;;;;;;5036342;28;20466;-74
2020/12/13 07:50:46;;;;;;;20.90;10.10;;;8.90;95.90;;;;;;5036089;28;20445;-74
2020/12/13 07:53:22;;;;;;;16.60;10.00;;;8.90;95.90;;;;;;5036097;28;20426;-73
2020/12/13 07:55:48;;;;;;;19.20;11.07;;;8.90;95.80;;;;;;5036346;28;20422;-73
2020/12/13 07:58:18;;;;;;;14.47;9.63;;;8.90;95.90;;;;;;5036195;28;20463;-72
2020/12/13 08:00:45;;;;;;;15.30;10.13;;;8.90;95.70;;;;;;5036285;28;20446;-72
2020/12/13 08:03:12;;;;;;;18.47;9.57;;;8.90;95.70;;;;;;5035864;28;20973;-72
2020/12/13 08:05:41;;;;;;;16.90;9.40;;;9.00;95.60;;;;;;5035948;28;20509;-71
2020/12/13 08:08:08;;;;;;;15.30;9.73;;;9.00;95.50;;;;;;5035975;28;20467;-71
2020/12/13 08:10:35;;;;;;;15.80;10.47;;;9.00;95.60;;;;;;5036124;28;20450;-71
2020/12/13 08:13:03;;;;;;;17.60;9.10;;;9.00;96.00;;;;;;5036229;28;20445;-71
2020/12/13 08:15:29;;;;;;;22.73;10.53;;;9.10;95.70;;;;;;5036105;28;20482;-71
2020/12/13 08:18:07;;;;;;;14.83;9.40;;;9.10;95.60;;;;;;5035846;28;20462;-72
2020/12/13 08:20:37;;;;;;;14.73;9.57;;;9.20;95.60;;;;;;5035902;28;20801;-72
2020/12/13 08:23:06;;;;;;;16.13;10.70;;;9.20;95.40;;;;;;5035809;28;20434;-72
2020/12/13 08:25:35;;;;;;;21.63;10.23;;;9.20;95.00;;;;;;5035720;28;20485;-72
2020/12/13 08:28:04;;;;;;;14.00;8.60;;;9.20;94.70;;;;;;5035677;28;20557;-72
2020/12/13 08:30:30;;;;;;;22.10;9.90;;;9.10;94.60;;;;;;5035821;28;20438;-72
2020/12/13 08:32:58;;;;;;;20.83;9.37;;;9.10;94.30;;;;;;5035617;28;20450;-72
2020/12/13 08:35:28;;;;;;;17.90;9.77;;;9.10;94.40;;;;;;5035363;28;20466;-72
2020/12/13 08:37:55;;;;;;;18.10;9.03;;;9.10;94.50;;;;;;5034729;28;20470;-72
2020/12/13 08:40:34;;;;;;;16.77;9.73;;;9.10;94.20;;;;;;5035512;28;20434;-72
2020/12/13 08:43:01;;;;;;;18.17;9.17;;;9.10;94.40;;;;;;5035505;28;20429;-72
2020/12/13 08:45:27;;;;;;;12.63;8.53;;;9.00;94.20;;;;;;5035363;28;20485;-73
2020/12/13 08:47:59;;;;;;;23.97;9.17;;;9.10;94.10;;;;;;5035260;28;20468;-72
2020/12/13 08:50:26;;;;;;;13.20;8.60;;;9.10;94.20;;;;;;5035395;28;20427;-72
2020/12/13 08:52:53;;;;;;;15.43;9.80;;;9.10;94.50;;;;;;5035211;28;20927;-72
2020/12/13 08:55:26;;;;;;;17.13;9.33;;;9.10;94.10;;;;;;5035205;28;20442;-73
2020/12/13 08:57:59;;;;;;;15.70;8.47;;;9.10;94.10;;;;;;5035071;28;20519;-73
2020/12/13 09:00:27;;;;;;;13.07;8.80;;;9.10;94.00;;;;;;5035099;28;20480;-74
2020/12/13 09:02:58;;;;;;;16.97;8.93;;;9.10;94.00;;;;;;5035057;28;20450;-72
2020/12/13 09:05:30;;;;;;;11.80;8.57;;;9.10;93.90;;;;;;5034572;28;20841;-73
2020/12/13 09:07:58;;;;;;;12.00;8.50;;;9.10;94.00;;;;;;5034921;28;20843;-72
2020/12/13 09:10:26;;;;;;;21.13;10.60;;;9.10;94.10;;;;;;5035216;28;20469;-72
2020/12/13 09:12:53;;;;;;;15.43;9.97;;;9.20;94.10;;;;;;5034795;28;20433;-72
2020/12/13 09:15:22;;;;;;;23.43;10.10;;;9.30;94.90;;;;;;5034860;28;20452;-73
2020/12/13 09:17:54;;;;;;;17.37;9.50;;;9.60;95.50;;;;;;5000505;28;20831;-73
2020/12/13 09:20:31;;;;;;;22.10;8.70;;;9.70;94.10;;;;;;5034338;28;20800;-72
2020/12/13 09:23:06;;;;;;;12.00;8.80;;;9.80;93.60;;;;;;5034402;28;20485;-73
2020/12/13 09:25:37;;;;;;;10.47;8.20;;;9.80;93.70;;;;;;5034295;28;20493;-72
2020/12/13 09:28:04;;;;;;;71.83;11.63;;;9.90;93.50;;;;;;5034436;28;20549;-73
2020/12/13 09:30:31;;;;;;;21.43;8.70;;;10.00;92.90;;;;;;5034215;28;20446;-72
2020/12/13 09:32:58;;;;;;;13.23;9.20;;;10.10;92.90;;;;;;5033955;28;20447;-72
2020/12/13 09:35:28;;;;;;;12.20;8.53;;;10.20;92.70;;;;;;5034204;28;20542;-72
2020/12/13 09:37:56;;;;;;;11.00;8.80;;;10.30;92.30;;;;;;5033991;28;20474;-73
2020/12/13 09:40:23;;;;;;;15.70;8.70;;;10.40;92.10;;;;;;5033978;28;20449;-73
2020/12/13 09:42:50;;;;;;;11.13;9.20;;;10.50;91.80;;;;;;5034193;28;20947;-73
2020/12/13 09:45:17;;;;;;;16.40;8.43;;;10.50;91.50;;;;;;5034165;28;20469;-73
2020/12/13 09:47:43;;;;;;;12.10;8.80;;;10.50;91.40;;;;;;5034079;28;20435;-72
2020/12/13 09:50:10;;;;;;;13.53;8.10;;;10.60;91.30;;;;;;5016729;28;20501;-72
2020/12/13 09:52:38;;;;;;;14.37;9.13;;;10.60;91.10;;;;;;5034064;28;20496;-72
2020/12/13 09:55:08;;;;;;;11.10;8.30;;;10.50;90.90;;;;;;5034354;28;20438;-73
2020/12/13 09:57:34;;;;;;;15.00;7.90;;;10.50;91.10;;;;;;5034032;28;20450;-73
2020/12/13 10:00:01;;;;;;;12.63;8.23;;;10.50;91.10;;;;;;5034115;28;20430;-73
2020/12/13 10:02:27;;;;;;;11.10;7.73;;;10.50;90.90;;;;;;5034373;28;20426;-73
2020/12/13 10:04:54;;;;;;;17.37;7.60;;;10.50;90.90;;;;;;5033461;28;20470;-73
2020/12/13 10:08:54;;;;;;;11.60;7.60;;;10.50;90.80;;;;;;5033999;28;20435;-73
2020/12/13 10:10:21;;;;;;;14.30;6.70;;;10.60;90.10;;;;;;5033558;28;20530;-72
2020/12/13 10:12:48;;;;;;;11.00;6.30;;;10.50;90.30;;;;;;5033526;28;20442;-72
2020/12/13 10:15:15;;;;;;;11.30;6.10;;;10.50;90.20;;;;;;5033616;28;20437;-73
2020/12/13 10:17:41;;;;;;;7.80;6.33;;;10.50;90.30;;;;;;5016664;28;20425;-73
2020/12/13 10:20:08;;;;;;;6.33;5.40;;;10.50;90.50;;;;;;5033953;28;20537;-73
2020/12/13 10:22:36;;;;;;;12.47;6.50;;;10.50;90.60;;;;;;5033895;28;20434;-73
2020/12/13 10:25:04;;;;;;;7.10;6.10;;;10.50;90.60;;;;;;5033070;28;20609;-73
2020/12/13 10:27:34;;;;;;;5.80;5.20;;;10.50;90.70;;;;;;5033672;28;20431;-73
2020/12/13 10:30:01;;;;;;;10.80;6.00;;;10.40;90.40;;;;;;5033458;28;20894;-74
2020/12/13 10:32:28;;;;;;;9.40;5.83;;;10.40;90.30;;;;;;5033556;28;20459;-73
2020/12/13 10:34:55;;;;;;;13.03;5.63;;;10.40;90.40;;;;;;5033366;28;20423;-73
2020/12/13 10:37:21;;;;;;;7.03;5.90;;;10.50;90.20;;;;;;5033224;28;20458;-75
2020/12/13 10:39:50;;;;;;;6.93;5.80;;;10.50;90.00;;;;;;5033256;28;20465;-72
2020/12/13 10:42:16;;;;;;;8.97;6.60;;;10.60;90.10;;;;;;5033063;28;20446;-72
2020/12/13 10:44:43;;;;;;;10.90;5.90;;;10.70;90.10;;;;;;5033548;28;20473;-72
2020/12/13 10:47:11;;;;;;;10.07;5.60;;;10.70;90.00;;;;;;5033485;28;20474;-73
2020/12/13 10:49:40;;;;;;;11.30;4.93;;;10.70;89.60;;;;;;5033137;28;21003;-73
2020/12/13 10:52:06;;;;;;;9.43;4.90;;;10.80;89.10;;;;;;5033478;28;20433;-73
2020/12/13 10:54:33;;;;;;;16.00;5.67;;;10.70;88.60;;;;;;5033171;28;20919;-73
2020/12/13 10:56:59;;;;;;;7.73;4.40;;;10.80;88.10;;;;;;5033241;28;20463;-73
2020/12/13 10:59:26;;;;;;;14.60;5.13;;;10.90;87.30;;;;;;5033152;28;20474;-73
2020/12/13 11:01:53;;;;;;;7.43;4.80;;;10.80;87.10;;;;;;5035336;28;20445;-74
2020/12/13 11:04:19;;;;;;;10.20;6.20;;;10.80;87.60;;;;;;5037299;28;20457;-73
2020/12/13 11:06:46;;;;;;;7.80;5.27;;;10.80;87.70;;;;;;5036948;28;20928;-73
2020/12/13 11:09:12;;;;;;;10.83;5.27;;;10.80;88.10;;;;;;5037072;28;20463;-73
2020/12/13 11:11:39;;;;;;;8.70;5.10;;;10.90;88.90;;;;;;5037234;28;20423;-73
2020/12/13 11:14:05;;;;;;;10.03;5.47;;;11.10;88.90;;;;;;5036801;28;20438;-73
2020/12/13 11:16:32;;;;;;;7.13;5.80;;;11.40;88.10;;;;;;5037104;28;20423;-73
2020/12/13 11:18:59;;;;;;;10.43;5.50;;;11.80;86.00;;;;;;5037047;28;20469;-74
2020/12/13 11:21:25;;;;;;;9.67;4.90;;;12.10;83.80;;;;;;5036978;28;20450;-73
2020/12/13 11:23:52;;;;;;;5.50;5.00;;;12.40;82.60;;;;;;5036837;28;20442;-74
2020/12/13 11:26:18;;;;;;;9.20;4.33;;;12.60;80.40;;;;;;5036233;28;20473;-74
2020/12/13 11:28:44;;;;;;;8.30;5.13;;;13.00;79.20;;;;;;5036722;28;20465;-74
2020/12/13 11:31:11;;;;;;;10.87;4.37;;;13.30;76.40;;;;;;5036866;28;20419;-74
2020/12/13 11:33:37;;;;;;;9.70;5.10;;;13.70;76.30;;;;;;5036998;28;20438;-74
2020/12/13 11:36:04;;;;;;;6.20;4.47;;;14.00;74.30;;;;;;5036433;28;20477;-73
2020/12/13 11:38:30;;;;;;;9.90;5.30;;;14.30;72.70;;;;;;5036685;28;20473;-74
2020/12/13 11:40:56;;;;;;;4.63;3.70;;;14.70;72.40;;;;;;5036703;28;20441;-74
2020/12/13 11:43:23;;;;;;;5.40;4.27;;;15.00;70.80;;;;;;5036700;28;20447;-74
2020/12/13 11:45:50;;;;;;;5.60;4.00;;;15.40;69.20;;;;;;5036493;28;20514;-74
2020/12/13 11:48:17;;;;;;;5.40;4.07;;;15.60;67.10;;;;;;5036026;28;20875;-74
2020/12/13 11:50:50;;;;;;;10.80;4.40;;;15.90;64.40;;;;;;5035933;28;20905;-74
2020/12/13 11:53:17;;;;;;;6.27;3.73;;;16.10;63.50;;;;;;5036466;28;20435;-74
2020/12/13 11:55:45;;;;;;;7.43;3.50;;;16.20;61.70;;;;;;5036438;28;20419;-74
2020/12/13 11:58:12;;;;;;;4.87;2.93;;;16.10;60.50;;;;;;5036350;28;20471;-74
2020/12/13 12:00:40;;;;;;;6.40;3.13;;;15.80;60.20;;;;;;5035830;28;20430;-74
2020/12/13 12:03:07;;;;;;;5.87;3.00;;;15.40;60.70;;;;;;5036147;28;20430;-74
2020/12/13 12:05:34;;;;;;;8.10;2.90;;;15.00;61.90;;;;;;5036183;28;20963;-73
2020/12/13 12:08:01;;;;;;;5.37;3.10;;;14.60;62.40;;;;;;5036052;28;20469;-74
2020/12/13 12:10:29;;;;;;;3.00;2.70;;;14.40;63.70;;;;;;5035723;28;20982;-74
2020/12/13 12:12:56;;;;;;;6.10;3.10;;;14.00;64.20;;;;;;5034702;28;20492;-74
2020/12/13 12:15:22;;;;;;;5.97;1.77;;;13.70;65.40;;;;;;5035711;28;20446;-74
2020/12/13 12:17:49;;;;;;;3.67;1.90;;;13.30;65.80;;;;;;5035829;28;20431;-74
2020/12/13 12:20:19;;;;;;;4.37;2.00;;;13.30;67.30;;;;;;5035624;28;20959;-74
2020/12/13 12:22:45;;;;;;;3.60;1.57;;;13.50;67.00;;;;;;5035885;28;20446;-73
2020/12/13 12:25:12;;;;;;;3.73;1.70;;;13.90;65.90;;;;;;5035315;28;20999;-74
2020/12/13 12:27:39;;;;;;;5.60;1.67;;;14.10;65.00;;;;;;5035649;28;20442;-74
2020/12/13 12:30:06;;;;;;;5.93;1.87;;;14.10;62.10;;;;;;5035626;28;20446;-74
2020/12/13 12:32:33;;;;;;;3.30;1.50;;;14.00;63.20;;;;;;5035735;28;20429;-74
2020/12/13 12:34:59;;;;;;;4.73;1.47;;;14.10;63.90;;;;;;5035211;28;20435;-74
2020/12/13 12:37:26;;;;;;;4.40;1.17;;;14.40;64.30;;;;;;5035771;28;20489;-75
2020/12/13 12:39:53;;;;;;;5.27;1.50;;;14.80;63.80;;;;;;5035032;28;20470;-76
2020/12/13 12:42:20;;;;;;;6.63;1.70;;;15.20;61.70;;;;;;5035195;28;20429;-76